Time;durP1;ratioP1;P1;durP2;ratioP2;P2;SDS_P1;SDS_P2;PMS_P1;PMS_P2;Temp;Humidity;BMP_temperature;BMP_pressure;BME280_temperature;BME280_humidity;BME280_pressure;Samples;Min_cycle;Max_cycle;Signal;HPM_P1;HPM_P2
2024/02/26 00:00:12;;;;;;;0.80;0.80;;;;;;;4.00;100.00;91114.13;2090324;28;20025;-85
2024/02/26 00:01:13;;;;;;;0.85;0.80;;;;;;;3.95;100.00;91119.91;2082274;28;20798;-86
2024/02/26 00:02:14;;;;;;;1.25;0.70;;;;;;;3.96;100.00;91108.94;2090194;28;20025;-84
2024/02/26 00:03:15;;;;;;;1.67;0.70;;;;;;;3.93;100.00;91115.06;2101619;28;20027;-86
2024/02/26 00:04:16;;;;;;;0.70;0.70;;;;;;;3.88;100.00;91112.94;2098622;28;20508;-88
2024/02/26 00:05:17;;;;;;;0.70;0.70;;;;;;;3.86;100.00;91120.53;2098361;28;20346;-87
2024/02/26 00:06:18;;;;;;;1.95;0.65;;;;;;;3.78;100.00;91122.66;2106916;28;20028;-86
2024/02/26 00:07:19;;;;;;;0.90;0.90;;;;;;;3.71;100.00;91128.16;2106858;28;20096;-84
2024/02/26 00:08:20;;;;;;;0.75;0.70;;;;;;;3.69;100.00;91117.28;2106794;28;20077;-88
2024/02/26 00:09:21;;;;;;;1.05;0.88;;;;;;;3.68;100.00;91112.38;2115281;28;20135;-85
2024/02/26 00:10:22;;;;;;;1.00;0.95;;;;;;;3.69;100.00;91111.25;2115232;28;20822;-86
2024/02/26 00:11:23;;;;;;;5.47;3.80;;;;;;;3.61;100.00;91099.41;2098550;28;20024;-87
2024/02/26 00:12:24;;;;;;;2.13;1.92;;;;;;;3.61;100.00;91104.69;2098558;28;20055;-86
2024/02/26 00:13:25;;;;;;;2.38;1.63;;;;;;;3.60;100.00;91093.38;2105688;28;20418;-89
2024/02/26 00:14:45;;;;;;;1.42;1.20;;;;;;;3.63;100.00;91086.50;2100659;28;20093;-86
2024/02/26 00:15:46;;;;;;;1.10;1.00;;;;;;;3.58;100.00;91100.97;2103667;28;20426;-87
2024/02/26 00:16:47;;;;;;;1.48;1.17;;;;;;;3.66;100.00;91098.88;2101020;28;20032;-87
2024/02/26 00:17:48;;;;;;;1.83;1.23;;;;;;;3.94;100.00;91105.22;2098349;28;20044;-85
2024/02/26 00:18:49;;;;;;;0.82;0.80;;;;;;;3.84;100.00;91111.56;2106640;28;20024;-84
2024/02/26 00:19:50;;;;;;;0.80;0.80;;;;;;;3.83;100.00;91107.44;2106682;28;20119;-85
2024/02/26 00:20:51;;;;;;;0.82;0.73;;;;;;;3.82;100.00;91105.94;2098358;28;20025;-85
2024/02/26 00:21:53;;;;;;;0.80;0.80;;;;;;;3.72;100.00;91102.47;2092652;28;20111;-85
2024/02/26 00:22:54;;;;;;;0.70;0.70;;;;;;;3.81;100.00;91109.75;2082153;28;20029;-85
2024/02/26 00:23:55;;;;;;;1.17;1.00;;;;;;;3.73;100.00;91104.69;2091020;28;20486;-86
2024/02/26 00:24:56;;;;;;;0.80;0.80;;;;;;;3.73;100.00;91107.34;2089995;28;20055;-85
2024/02/26 00:25:57;;;;;;;0.82;0.82;;;;;;;3.74;100.00;91100.88;2090480;28;20020;-85
2024/02/26 00:26:59;;;;;;;1.00;0.75;;;;;;;3.79;100.00;91099.63;2093111;28;20504;-89
2024/02/26 00:28:00;;;;;;;1.00;0.80;;;;;;;3.80;100.00;91116.94;2090090;28;20036;-86
2024/02/26 00:29:01;;;;;;;1.27;0.90;;;;;;;4.07;100.00;91108.59;2090169;28;20481;-83
2024/02/26 00:30:02;;;;;;;0.60;0.60;;;;;;;4.13;100.00;91114.13;2098409;28;20029;-86
2024/02/26 00:31:03;;;;;;;0.90;0.90;;;;;;;3.98;100.00;91108.50;2090111;28;20435;-84
2024/02/26 00:32:05;;;;;;;1.38;0.70;;;;;;;4.46;100.00;91104.75;2087082;28;20118;-86
2024/02/26 00:33:06;;;;;;;0.70;0.70;;;;;;;4.41;100.00;91112.50;2033357;28;20028;-85
2024/02/26 00:34:06;;;;;;;1.15;0.80;;;;;;;4.17;100.00;91118.13;1970727;28;20028;-86
2024/02/26 00:35:09;;;;;;;0.90;0.90;;;;;;;4.27;100.00;91116.31;2057798;28;22560;-85
2024/02/26 00:36:10;;;;;;;0.60;0.60;;;;;;;4.22;100.00;91122.16;1985729;28;23470;-83
2024/02/26 00:37:11;;;;;;;0.75;0.75;;;;;;;4.13;100.00;91117.50;2055908;28;20048;-85
2024/02/26 00:38:12;;;;;;;0.95;0.88;;;;;;;4.22;100.00;91124.81;2011870;28;20477;-87
2024/02/26 00:39:13;;;;;;;0.98;0.70;;;;;;;4.19;100.00;91120.34;2033408;28;20146;-83
2024/02/26 00:40:14;;;;;;;1.00;0.93;;;;;;;4.03;100.00;91121.19;2069909;28;20032;-84
2024/02/26 00:41:19;;;;;;;0.70;0.60;;;;;;;4.01;100.00;91121.63;2058749;28;20056;-84
2024/02/26 00:42:19;;;;;;;1.20;0.80;;;;;;;4.00;100.00;91119.41;2062622;28;20052;-87
2024/02/26 00:43:20;;;;;;;0.80;0.75;;;;;;;3.87;100.00;91121.31;2077743;28;20044;-85
2024/02/26 00:44:21;;;;;;;0.80;0.80;;;;;;;3.96;100.00;91122.16;2061224;28;20123;-84
2024/02/26 00:45:22;;;;;;;1.00;0.70;;;;;;;3.99;100.00;91131.84;2063755;28;20044;-84
2024/02/26 00:46:23;;;;;;;1.00;0.80;;;;;;;4.01;100.00;91118.97;2061469;28;20032;-87
2024/02/26 00:47:24;;;;;;;0.70;0.70;;;;;;;4.02;100.00;91128.38;2057426;28;20025;-84
2024/02/26 00:48:25;;;;;;;0.90;0.90;;;;;;;3.86;100.00;91123.19;2063105;28;22242;-84
2024/02/26 00:49:26;;;;;;;0.70;0.70;;;;;;;3.98;100.00;91132.28;1936422;28;20032;-87
2024/02/26 00:50:27;;;;;;;0.70;0.70;;;;;;;3.98;100.00;91135.66;1913321;28;20075;-84
2024/02/26 00:51:28;;;;;;;1.00;0.68;;;;;;;4.06;100.00;91124.91;1927284;28;22194;-86
2024/02/26 00:52:29;;;;;;;0.70;0.70;;;;;;;3.99;100.00;91129.22;1810833;28;23389;-87
2024/02/26 00:53:31;;;;;;;0.70;0.70;;;;;;;3.94;100.00;91134.28;1798809;28;23562;-85
2024/02/26 00:54:32;;;;;;;0.77;0.75;;;;;;;3.94;100.00;91127.09;1860839;28;21224;-85
2024/02/26 00:55:33;;;;;;;0.85;0.70;;;;;;;3.85;100.00;91134.91;1807854;28;20180;-84
2024/02/26 00:56:34;;;;;;;0.70;0.70;;;;;;;3.82;100.00;91141.06;1793952;28;22560;-86
2024/02/26 00:57:35;;;;;;;0.98;0.70;;;;;;;3.85;100.00;91134.19;1772246;28;22610;-84
2024/02/26 00:58:36;;;;;;;1.35;0.80;;;;;;;3.93;100.00;91132.81;1746864;28;20166;-83
2024/02/26 00:59:37;;;;;;;0.60;0.60;;;;;;;3.89;100.00;91129.53;1742762;28;21105;-80
2024/02/26 01:00:38;;;;;;;0.82;0.80;;;;;;;3.96;100.00;91137.28;1768844;28;20028;-83
2024/02/26 01:01:39;;;;;;;0.80;0.80;;;;;;;4.01;100.00;91134.84;1814409;28;20120;-81
2024/02/26 01:02:41;;;;;;;0.80;0.80;;;;;;;4.00;100.00;91122.78;1821120;28;20101;-86
2024/02/26 01:03:42;;;;;;;0.80;0.80;;;;;;;3.95;100.00;91128.59;1856508;28;22318;-85
2024/02/26 01:04:43;;;;;;;0.73;0.73;;;;;;;3.88;100.00;91126.16;1866750;28;20035;-90
2024/02/26 01:05:44;;;;;;;0.88;0.88;;;;;;;3.91;100.00;91121.94;1905013;28;20175;-88
2024/02/26 01:06:46;;;;;;;0.80;0.73;;;;;;;3.88;100.00;91122.78;1922153;28;20165;-82
2024/02/26 01:07:47;;;;;;;0.70;0.70;;;;;;;3.90;100.00;91120.44;1936422;28;21695;-85
2024/02/26 01:08:48;;;;;;;0.80;0.80;;;;;;;3.90;100.00;91128.38;1983905;28;20150;-85
2024/02/26 01:09:49;;;;;;;0.70;0.70;;;;;;;3.81;100.00;91123.72;2029509;28;20036;-85
2024/02/26 01:10:50;;;;;;;0.80;0.80;;;;;;;3.83;100.00;91118.03;2035743;28;20053;-84
2024/02/26 01:11:51;;;;;;;0.75;0.75;;;;;;;3.91;100.00;91122.69;2077633;28;20020;-83
2024/02/26 01:12:52;;;;;;;0.70;0.70;;;;;;;3.94;100.00;91116.53;2061569;28;20028;-85
2024/02/26 01:13:56;;;;;;;0.75;0.75;;;;;;;3.87;100.00;91119.41;2063605;28;20033;-84
2024/02/26 01:14:57;;;;;;;1.45;0.70;;;;;;;3.83;100.00;91115.38;2015899;27;20074;-87
2024/02/26 01:15:58;;;;;;;0.70;0.70;;;;;;;3.84;100.00;91114.94;2023035;28;22549;-85
2024/02/26 01:16:59;;;;;;;0.80;0.80;;;;;;;3.82;100.00;91113.88;2023501;28;20036;-83
2024/02/26 01:18:00;;;;;;;0.70;0.70;;;;;;;3.70;100.00;91120.66;2026047;28;20033;-84
2024/02/26 01:19:00;;;;;;;0.70;0.70;;;;;;;4.15;100.00;91117.06;2016401;28;20093;-84
2024/02/26 01:20:02;;;;;;;0.65;0.65;;;;;;;4.31;100.00;91126.81;2023258;28;20170;-86
2024/02/26 01:21:06;;;;;;;0.50;0.50;;;;;;;4.60;100.00;91124.00;2031432;28;20060;-85
2024/02/26 01:22:07;;;;;;;0.70;0.70;;;;;;;4.31;100.00;91113.56;2046613;28;21616;-85
2024/02/26 01:23:08;;;;;;;0.80;0.70;;;;;;;4.27;100.00;91127.63;2049196;28;20477;-83
2024/02/26 01:24:09;;;;;;;1.75;0.70;;;;;;;4.14;100.00;91126.16;2053227;28;20039;-85
2024/02/26 01:25:11;;;;;;;0.60;0.60;;;;;;;4.05;100.00;91132.09;2069121;28;20024;-84
2024/02/26 01:26:12;;;;;;;0.60;0.60;;;;;;;4.09;100.00;91132.72;2062060;28;20939;-84
2024/02/26 01:27:14;;;;;;;0.60;0.60;;;;;;;4.08;100.00;91117.28;2076870;28;20137;-85
2024/02/26 01:28:15;;;;;;;0.85;0.60;;;;;;;4.10;100.00;91123.63;2098136;28;20024;-87
2024/02/26 01:29:16;;;;;;;0.52;0.52;;;;;;;4.22;100.00;91135.38;2107751;28;20091;-85
2024/02/26 01:30:17;;;;;;;0.57;0.57;;;;;;;4.13;100.00;91128.06;2107726;28;20035;-84
2024/02/26 01:31:18;;;;;;;0.40;0.40;;;;;;;4.09;100.00;91124.81;2091227;28;20052;-87
2024/02/26 01:32:19;;;;;;;1.60;0.60;;;;;;;4.00;100.00;91128.06;2092424;28;20148;-84
2024/02/26 01:33:20;;;;;;;0.50;0.50;;;;;;;3.92;100.00;91137.38;2090886;28;20424;-84
2024/02/26 01:34:21;;;;;;;0.50;0.50;;;;;;;3.97;100.00;91134.19;2090040;28;20029;-84
2024/02/26 01:35:22;;;;;;;0.70;0.50;;;;;;;3.99;100.00;91131.13;2097718;28;20025;-89
2024/02/26 01:36:23;;;;;;;0.50;0.50;;;;;;;3.95;100.00;91123.31;2089409;28;20020;-85
2024/02/26 01:37:24;;;;;;;0.50;0.50;;;;;;;3.91;100.00;91122.69;2081479;28;20036;-84
2024/02/26 01:38:25;;;;;;;0.73;0.70;;;;;;;4.13;100.00;91130.72;2097753;28;20028;-84
2024/02/26 01:39:28;;;;;;;0.50;0.50;;;;;;;4.10;100.00;91128.91;2097860;28;20024;-85
2024/02/26 01:40:29;;;;;;;0.68;0.57;;;;;;;4.00;100.00;91132.63;2089704;28;20452;-87
2024/02/26 01:41:30;;;;;;;0.57;0.55;;;;;;;3.90;100.00;91128.38;2085703;28;20024;-86
2024/02/26 01:42:33;;;;;;;0.50;0.50;;;;;;;4.21;100.00;91124.03;2089892;28;20025;-84
2024/02/26 01:43:34;;;;;;;0.50;0.50;;;;;;;4.06;100.00;91122.25;2089726;28;20408;-85
2024/02/26 01:44:35;;;;;;;0.43;0.43;;;;;;;4.02;100.00;91128.38;2097062;28;20024;-86
2024/02/26 01:45:36;;;;;;;0.40;0.40;;;;;;;4.10;100.00;91123.63;2097378;28;20020;-84
2024/02/26 01:46:40;;;;;;;0.40;0.40;;;;;;;4.08;100.00;91119.91;2098571;28;20025;-86
2024/02/26 01:47:42;;;;;;;0.40;0.40;;;;;;;4.23;100.00;91128.91;2097921;28;20042;-84
2024/02/26 01:48:45;;;;;;;0.40;0.40;;;;;;;4.34;100.00;91118.00;2104270;28;20020;-85
2024/02/26 01:49:47;;;;;;;0.40;0.40;;;;;;;4.36;100.00;91123.63;2113816;28;20023;-86
2024/02/26 01:50:48;;;;;;;0.40;0.40;;;;;;;4.26;100.00;91125.44;2089747;28;20025;-84
2024/02/26 01:51:49;;;;;;;0.40;0.40;;;;;;;4.21;100.00;91112.72;2106016;28;20020;-86
2024/02/26 01:52:50;;;;;;;0.40;0.40;;;;;;;4.12;100.00;91116.00;2114243;28;20068;-85
2024/02/26 01:53:52;;;;;;;0.40;0.40;;;;;;;4.07;100.00;91115.81;2114254;28;20510;-84
2024/02/26 01:54:52;;;;;;;0.50;0.50;;;;;;;4.08;100.00;91123.28;2105857;28;20062;-83
2024/02/26 01:55:53;;;;;;;0.47;0.47;;;;;;;4.10;100.00;91120.25;2114108;28;20352;-84
2024/02/26 01:56:55;;;;;;;0.50;0.50;;;;;;;4.00;100.00;91114.13;2113849;28;20329;-84
2024/02/26 01:57:56;;;;;;;2.25;0.50;;;;;;;4.03;100.00;91113.25;2113585;28;20015;-85
2024/02/26 01:58:58;;;;;;;0.45;0.45;;;;;;;4.11;100.00;91113.78;2105786;28;20024;-85
2024/02/26 01:59:59;;;;;;;0.50;0.50;;;;;;;4.05;100.00;91110.94;2097841;28;20020;-84
2024/02/26 02:01:02;;;;;;;0.50;0.50;;;;;;;4.11;100.00;91108.50;2101338;28;20028;-85
2024/02/26 02:02:07;;;;;;;0.40;0.40;;;;;;;4.16;100.00;91103.41;2105625;28;20031;-85
2024/02/26 02:03:08;;;;;;;0.60;0.60;;;;;;;4.10;100.00;91109.69;2107612;28;20055;-85
2024/02/26 02:04:09;;;;;;;0.65;0.50;;;;;;;4.15;100.00;91109.88;2114048;28;20129;-83
2024/02/26 02:05:12;;;;;;;0.40;0.40;;;;;;;4.18;100.00;91095.81;2097482;28;20030;-85
2024/02/26 02:06:13;;;;;;;0.50;0.50;;;;;;;4.19;100.00;91099.19;2089552;28;20024;-84
2024/02/26 02:07:14;;;;;;;0.50;0.50;;;;;;;4.19;100.00;91097.28;2097318;28;20021;-84
2024/02/26 02:08:15;;;;;;;0.57;0.57;;;;;;;4.09;100.00;91089.69;2097462;28;20119;-84
2024/02/26 02:09:16;;;;;;;0.50;0.50;;;;;;;4.07;100.00;91081.44;2105778;28;20066;-84
2024/02/26 02:10:22;;;;;;;0.63;0.63;;;;;;;3.94;100.00;91076.16;2105918;28;20024;-84
2024/02/26 02:11:23;;;;;;;0.60;0.60;;;;;;;3.90;100.00;91084.19;2090608;28;20492;-84
2024/02/26 02:12:24;;;;;;;0.50;0.50;;;;;;;3.79;100.00;91081.13;2100979;28;20039;-85
2024/02/26 02:13:25;;;;;;;2.17;0.60;;;;;;;4.04;100.00;91086.41;2105834;28;20085;-84
2024/02/26 02:14:26;;;;;;;0.57;0.50;;;;;;;4.17;100.00;91080.34;2105137;28;21040;-85
2024/02/26 02:15:27;;;;;;;0.52;0.52;;;;;;;3.99;100.00;91078.25;2112321;28;20107;-85
2024/02/26 02:16:31;;;;;;;0.50;0.50;;;;;;;4.17;100.00;91083.00;2100620;28;20503;-84
2024/02/26 02:17:32;;;;;;;0.40;0.40;;;;;;;4.18;100.00;91081.84;2082848;28;20029;-85
2024/02/26 02:18:33;;;;;;;0.40;0.40;;;;;;;4.62;100.00;91076.69;2088931;28;20028;-85
2024/02/26 02:19:34;;;;;;;0.40;0.40;;;;;;;4.63;100.00;91078.16;2097596;28;20101;-84
2024/02/26 02:20:35;;;;;;;0.40;0.40;;;;;;;4.40;100.00;91074.72;2102400;28;20085;-83
2024/02/26 02:21:36;;;;;;;0.40;0.40;;;;;;;4.39;100.00;91075.91;2099995;28;20031;-84
2024/02/26 02:22:38;;;;;;;0.40;0.40;;;;;;;4.19;100.00;91075.41;2097596;28;20036;-85
2024/02/26 02:23:39;;;;;;;0.30;0.30;;;;;;;4.25;100.00;91073.69;2101874;28;20102;-84
2024/02/26 02:24:40;;;;;;;0.40;0.40;;;;;;;4.31;100.00;91073.91;2089206;28;20040;-84
2024/02/26 02:26:48;;;;;;;;;;;;;;;3.05;100.00;91071.50;2140020;27;20122;-82
2024/02/26 02:27:50;;;;;;;0.30;0.30;;;;;;;3.05;100.00;91076.03;2130248;27;19931;-84
2024/02/26 02:28:51;;;;;;;0.40;0.40;;;;;;;2.94;100.00;91077.06;2121923;27;20030;-83
2024/02/26 02:29:52;;;;;;;0.40;0.40;;;;;;;2.85;100.00;91079.56;2113157;28;20020;-82
2024/02/26 02:30:54;;;;;;;0.40;0.40;;;;;;;2.93;100.00;91088.75;2113332;28;20083;-84
2024/02/26 02:31:57;;;;;;;0.43;0.40;;;;;;;2.89;100.00;91082.09;2114010;27;20103;-84
2024/02/26 02:32:58;;;;;;;0.30;0.30;;;;;;;2.96;100.00;91087.22;2113581;28;20081;-83
2024/02/26 02:34:00;;;;;;;0.30;0.30;;;;;;;2.93;100.00;91088.03;2113209;27;20577;-83
2024/02/26 02:35:01;;;;;;;0.30;0.30;;;;;;;2.90;100.00;91092.25;2121731;27;20361;-82
2024/02/26 02:36:02;;;;;;;0.32;0.30;;;;;;;2.77;100.00;91100.13;2121789;27;20068;-84
2024/02/26 02:37:04;;;;;;;0.40;0.40;;;;;;;2.82;100.00;91100.78;2121781;28;20027;-83
2024/02/26 02:38:05;;;;;;;0.40;0.40;;;;;;;2.84;100.00;91101.09;2121728;27;20027;-82
2024/02/26 02:39:06;;;;;;;0.57;0.32;;;;;;;2.87;100.00;91100.25;2130466;27;20464;-82
2024/02/26 02:40:07;;;;;;;0.40;0.40;;;;;;;2.77;100.00;91096.75;2121975;28;20042;-83
2024/02/26 02:41:08;;;;;;;0.40;0.40;;;;;;;2.74;100.00;91100.94;2113409;28;20134;-83
2024/02/26 02:42:09;;;;;;;0.47;0.40;;;;;;;2.78;100.00;91103.50;2104936;28;20024;-83
2024/02/26 02:43:10;;;;;;;0.40;0.40;;;;;;;2.77;100.00;91099.38;2104958;28;20024;-82
2024/02/26 02:44:11;;;;;;;0.40;0.40;;;;;;;2.76;100.00;91097.88;2114641;28;20020;-82
2024/02/26 02:45:12;;;;;;;0.60;0.40;;;;;;;2.74;100.00;91098.31;2123166;27;20431;-81
2024/02/26 02:46:13;;;;;;;0.90;0.40;;;;;;;2.76;100.00;91095.25;2123531;28;20023;-82
2024/02/26 02:47:14;;;;;;;1.17;0.45;;;;;;;2.78;100.00;91096.31;2113790;27;20023;-84
2024/02/26 02:48:15;;;;;;;0.40;0.40;;;;;;;2.68;100.00;91091.31;2121604;27;20027;-83
2024/02/26 02:49:16;;;;;;;0.30;0.30;;;;;;;2.72;100.00;91097.22;2129944;27;20106;-83
2024/02/26 02:50:17;;;;;;;0.85;0.40;;;;;;;2.70;100.00;91089.75;2121943;27;20019;-83
2024/02/26 02:51:18;;;;;;;0.43;0.40;;;;;;;2.72;100.00;91097.22;2113169;28;20055;-85
2024/02/26 02:52:19;;;;;;;0.40;0.40;;;;;;;2.75;100.00;91085.84;2104884;28;20544;-83
2024/02/26 02:53:20;;;;;;;0.40;0.40;;;;;;;2.75;100.00;91088.50;2113255;27;20103;-84
2024/02/26 02:54:21;;;;;;;0.47;0.47;;;;;;;2.71;100.00;91090.47;2121635;27;20127;-82
2024/02/26 02:55:22;;;;;;;0.63;0.43;;;;;;;2.81;100.00;91089.47;2121562;28;20080;-83
2024/02/26 02:56:23;;;;;;;0.55;0.40;;;;;;;2.84;100.00;91090.53;2118572;27;20049;-82
2024/02/26 02:57:24;;;;;;;0.50;0.50;;;;;;;2.85;100.00;91092.00;2130049;27;20023;-83
2024/02/26 02:58:25;;;;;;;0.47;0.47;;;;;;;2.84;100.00;91101.81;2121527;27;20027;-82
2024/02/26 02:59:27;;;;;;;0.43;0.40;;;;;;;2.84;100.00;91095.81;2121708;27;20030;-83
2024/02/26 03:00:28;;;;;;;0.50;0.40;;;;;;;2.95;100.00;91093.66;2121397;28;20157;-82
2024/02/26 03:01:29;;;;;;;0.40;0.40;;;;;;;2.90;100.00;91089.63;2121414;27;20059;-83
2024/02/26 03:02:30;;;;;;;0.40;0.40;;;;;;;2.96;100.00;91093.22;2113125;28;20030;-85
2024/02/26 03:03:31;;;;;;;0.40;0.40;;;;;;;2.99;100.00;91094.28;2104614;28;20134;-81
2024/02/26 03:04:32;;;;;;;0.55;0.40;;;;;;;2.83;100.00;91089.78;2112896;28;20455;-83
2024/02/26 03:05:33;;;;;;;0.40;0.40;;;;;;;2.85;100.00;91094.66;2121457;27;20516;-82
2024/02/26 03:06:34;;;;;;;0.40;0.40;;;;;;;2.81;100.00;91094.00;2129691;27;20026;-81
2024/02/26 03:07:35;;;;;;;0.40;0.40;;;;;;;2.86;100.00;91094.25;2121274;27;20732;-84
2024/02/26 03:08:39;;;;;;;0.40;0.40;;;;;;;2.90;100.00;91094.91;2113015;28;20177;-83
2024/02/26 03:09:52;;;;;;;0.30;0.30;;;;;;;2.92;100.00;91091.84;2105546;28;20435;-82
2024/02/26 03:10:53;;;;;;;0.30;0.30;;;;;;;2.86;100.00;91094.25;2116238;27;20035;-83
2024/02/26 03:11:54;;;;;;;0.55;0.40;;;;;;;2.82;100.00;91092.84;2121380;28;20110;-83
2024/02/26 03:12:56;;;;;;;0.40;0.40;;;;;;;2.85;100.00;91095.38;2121240;28;20470;-85
2024/02/26 03:13:57;;;;;;;0.30;0.30;;;;;;;2.81;100.00;91097.41;2112764;28;20110;-84
2024/02/26 03:14:58;;;;;;;1.27;0.30;;;;;;;2.84;100.00;91103.72;2111199;28;20042;-82
2024/02/26 03:16:04;;;;;;;0.30;0.30;;;;;;;2.87;100.00;91101.00;2112694;27;20020;-82
2024/02/26 03:17:05;;;;;;;0.52;0.40;;;;;;;2.91;100.00;91096.38;2116977;28;20107;-84
2024/02/26 03:18:06;;;;;;;0.70;0.40;;;;;;;2.86;100.00;91102.16;2112799;28;20142;-83
2024/02/26 03:19:07;;;;;;;0.40;0.40;;;;;;;2.90;100.00;91099.44;2129947;27;20343;-83
2024/02/26 03:20:09;;;;;;;0.38;0.38;;;;;;;2.93;100.00;91099.31;2139047;27;20031;-83
2024/02/26 03:21:10;;;;;;;0.60;0.60;;;;;;;2.84;100.00;91091.28;2138917;27;20024;-84
2024/02/26 03:22:11;;;;;;;0.40;0.40;;;;;;;2.75;100.00;91091.88;2138709;27;20023;-82
2024/02/26 03:23:15;;;;;;;0.50;0.40;;;;;;;2.88;100.00;91088.53;2138998;27;20018;-82
2024/02/26 03:24:15;;;;;;;0.40;0.40;;;;;;;2.81;100.00;91084.22;2129698;27;20031;-84
2024/02/26 03:25:16;;;;;;;0.50;0.30;;;;;;;2.82;100.00;91084.94;2121221;28;20019;-83
2024/02/26 03:26:17;;;;;;;0.40;0.40;;;;;;;2.83;100.00;91081.88;2126261;27;20042;-84
2024/02/26 03:27:18;;;;;;;0.35;0.35;;;;;;;2.85;100.00;91076.91;2113698;28;20047;-82
2024/02/26 03:28:19;;;;;;;0.40;0.40;;;;;;;2.72;100.00;91079.53;2111299;27;20083;-83
2024/02/26 03:29:20;;;;;;;0.40;0.40;;;;;;;2.67;100.00;91085.28;2129749;27;20027;-84
2024/02/26 03:30:21;;;;;;;0.40;0.40;;;;;;;2.89;100.00;91085.47;2117848;28;20496;-85
2024/02/26 03:31:22;;;;;;;0.38;0.38;;;;;;;3.06;100.00;91088.06;2116106;28;20073;-82
2024/02/26 03:32:23;;;;;;;0.50;0.50;;;;;;;3.02;100.00;91088.16;2107236;27;20117;-83
2024/02/26 03:33:24;;;;;;;0.40;0.40;;;;;;;3.10;100.00;91089.47;2038124;27;20023;-84
2024/02/26 03:34:26;;;;;;;0.30;0.30;;;;;;;2.98;100.00;91082.25;2037240;28;20038;-85
2024/02/26 03:35:27;;;;;;;0.40;0.40;;;;;;;2.96;100.00;91082.66;2050829;27;20046;-85
2024/02/26 03:36:28;;;;;;;1.00;0.40;;;;;;;2.99;100.00;91089.75;2074526;27;20030;-85
2024/02/26 03:37:29;;;;;;;0.45;0.40;;;;;;;2.97;100.00;91086.03;2078067;27;20027;-83
2024/02/26 03:38:30;;;;;;;0.30;0.30;;;;;;;2.89;100.00;91080.19;2069165;27;20038;-85
2024/02/26 03:39:31;;;;;;;0.47;0.47;;;;;;;2.92;100.00;91084.66;2071735;27;20482;-82
2024/02/26 03:40:32;;;;;;;0.38;0.38;;;;;;;2.91;100.00;91083.19;2066745;28;20031;-82
2024/02/26 03:41:35;;;;;;;0.40;0.40;;;;;;;2.73;100.00;91075.72;2085941;27;20497;-83
2024/02/26 03:42:35;;;;;;;0.40;0.40;;;;;;;2.63;100.00;91074.09;2098937;27;20046;-84
2024/02/26 03:43:36;;;;;;;0.47;0.47;;;;;;;2.77;100.00;91075.63;2104930;27;20660;-83
2024/02/26 03:44:37;;;;;;;0.40;0.40;;;;;;;2.73;100.00;91082.91;2122876;27;20571;-84
2024/02/26 03:45:38;;;;;;;1.17;0.35;;;;;;;2.80;100.00;91080.06;2123726;27;20875;-82
2024/02/26 03:46:39;;;;;;;0.30;0.30;;;;;;;2.74;100.00;91085.13;2130663;27;20815;-83
2024/02/26 03:47:40;;;;;;;0.40;0.40;;;;;;;2.76;100.00;91089.97;2123861;27;20019;-82
2024/02/26 03:48:41;;;;;;;0.73;0.38;;;;;;;2.70;100.00;91083.72;2123823;27;20057;-83
2024/02/26 03:49:42;;;;;;;0.45;0.45;;;;;;;2.66;100.00;91086.44;2123803;27;20756;-84
2024/02/26 03:50:43;;;;;;;0.30;0.30;;;;;;;2.67;100.00;91087.94;2107003;28;20012;-82
2024/02/26 03:51:44;;;;;;;0.50;0.50;;;;;;;2.69;100.00;91084.88;2106924;28;20120;-85
2024/02/26 03:52:45;;;;;;;0.50;0.50;;;;;;;2.66;100.00;91083.81;2123691;27;20027;-85
2024/02/26 03:53:46;;;;;;;0.40;0.40;;;;;;;2.67;100.00;91089.81;2115157;27;20106;-83
2024/02/26 03:54:47;;;;;;;0.30;0.30;;;;;;;2.51;100.00;91091.34;2115249;27;20055;-85
2024/02/26 03:55:49;;;;;;;0.40;0.40;;;;;;;2.58;100.00;91094.94;2106935;28;20020;-83
2024/02/26 03:56:50;;;;;;;0.40;0.40;;;;;;;2.64;100.00;91094.03;2106942;28;20020;-85
2024/02/26 03:57:52;;;;;;;0.45;0.38;;;;;;;2.64;100.00;91088.03;2115310;28;20046;-84
2024/02/26 03:58:53;;;;;;;0.80;0.40;;;;;;;2.53;100.00;91089.03;2106986;28;20047;-85
2024/02/26 03:59:54;;;;;;;0.30;0.30;;;;;;;2.56;100.00;91084.09;2107005;27;20020;-84
2024/02/26 04:00:55;;;;;;;0.40;0.40;;;;;;;2.53;100.00;91085.66;2115479;27;20024;-84
2024/02/26 04:01:56;;;;;;;0.40;0.40;;;;;;;2.64;100.00;91088.78;2106724;28;20024;-85
2024/02/26 04:02:57;;;;;;;0.30;0.30;;;;;;;2.64;100.00;91080.13;2114472;27;20050;-84
2024/02/26 04:03:58;;;;;;;0.30;0.30;;;;;;;2.67;100.00;91084.53;2123576;27;20114;-83
2024/02/26 04:04:59;;;;;;;0.40;0.40;;;;;;;2.74;100.00;91089.66;2106769;28;20020;-82
2024/02/26 04:06:14;;;;;;;0.40;0.40;;;;;;;2.72;100.00;91087.44;2098834;28;20028;-83
2024/02/26 04:07:16;;;;;;;0.50;0.50;;;;;;;2.64;100.00;91088.03;2105773;28;20422;-83
2024/02/26 04:08:17;;;;;;;0.30;0.30;;;;;;;2.69;100.00;91088.25;2100274;28;20070;-83
2024/02/26 04:09:19;;;;;;;0.30;0.30;;;;;;;2.63;100.00;91091.81;2115273;28;20053;-82
2024/02/26 04:10:20;;;;;;;0.35;0.35;;;;;;;2.68;100.00;91093.97;2106743;28;20110;-84
2024/02/26 04:11:23;;;;;;;0.40;0.40;;;;;;;2.72;100.00;91091.94;2094434;28;20025;-83
2024/02/26 04:12:24;;;;;;;0.40;0.40;;;;;;;2.71;100.00;91090.47;2113800;28;20020;-81
2024/02/26 04:13:25;;;;;;;0.38;0.38;;;;;;;2.60;100.00;91088.13;2107204;28;20074;-83
2024/02/26 04:14:26;;;;;;;1.00;0.40;;;;;;;2.61;100.00;91086.22;2123557;27;20022;-81
2024/02/26 04:15:27;;;;;;;0.35;0.35;;;;;;;2.68;100.00;91102.63;2122781;27;20438;-82
2024/02/26 04:16:28;;;;;;;0.40;0.40;;;;;;;2.69;100.00;91092.81;2116793;27;20122;-83
2024/02/26 04:17:29;;;;;;;0.30;0.30;;;;;;;2.65;100.00;91095.53;2110260;28;20036;-82
2024/02/26 04:18:31;;;;;;;0.40;0.40;;;;;;;2.69;100.00;91098.81;2040595;28;20070;-81
2024/02/26 04:19:32;;;;;;;0.43;0.40;;;;;;;2.68;100.00;91101.88;2032989;28;20028;-82
2024/02/26 04:20:34;;;;;;;0.47;0.47;;;;;;;2.70;100.00;91102.19;2027600;28;20039;-82
2024/02/26 04:21:35;;;;;;;0.77;0.77;;;;;;;2.68;100.00;91096.59;2045636;27;20028;-86
2024/02/26 04:22:36;;;;;;;0.68;0.68;;;;;;;2.72;100.00;91092.72;2069492;27;20110;-82
2024/02/26 04:23:37;;;;;;;0.90;0.90;;;;;;;2.72;100.00;91097.22;2073167;27;20772;-81
2024/02/26 04:24:38;;;;;;;1.35;1.25;;;;;;;2.64;100.00;91095.94;2067660;28;20217;-81
2024/02/26 04:25:39;;;;;;;0.90;0.90;;;;;;;2.59;100.00;91097.19;2061485;28;20040;-81
2024/02/26 04:26:40;;;;;;;1.00;1.00;;;;;;;2.68;100.00;91093.97;2073068;28;20047;-82
2024/02/26 04:27:41;;;;;;;1.30;1.20;;;;;;;2.69;100.00;91093.53;2064470;28;20074;-82
2024/02/26 04:28:42;;;;;;;1.17;1.13;;;;;;;2.62;100.00;91093.72;2075238;28;20073;-81
2024/02/26 04:29:43;;;;;;;1.17;1.08;;;;;;;2.69;100.00;91083.00;2092889;27;22203;-83
2024/02/26 04:30:44;;;;;;;1.15;0.90;;;;;;;2.72;100.00;91084.81;2095486;27;20027;-80
2024/02/26 04:31:46;;;;;;;0.90;0.90;;;;;;;2.72;100.00;91079.53;2093893;28;20031;-84
2024/02/26 04:32:47;;;;;;;1.17;1.05;;;;;;;2.82;100.00;91079.66;2102338;28;20100;-83
2024/02/26 04:33:48;;;;;;;0.90;0.90;;;;;;;2.85;100.00;91082.19;2107856;28;20031;-81
2024/02/26 04:34:49;;;;;;;0.80;0.80;;;;;;;3.01;100.00;91076.88;2114798;27;20020;-84
2024/02/26 04:35:50;;;;;;;0.80;0.80;;;;;;;3.14;100.00;91087.47;2114774;28;20467;-82
2024/02/26 04:36:51;;;;;;;0.55;0.55;;;;;;;3.05;100.00;91083.97;2106584;28;20016;-83
2024/02/26 04:37:52;;;;;;;0.50;0.50;;;;;;;3.10;100.00;91080.81;2114861;28;20023;-80
2024/02/26 04:38:55;;;;;;;0.50;0.50;;;;;;;3.17;100.00;91085.91;2106703;28;20111;-83
2024/02/26 04:40:01;;;;;;;0.40;0.40;;;;;;;3.05;100.00;91084.69;2106994;27;20027;-82
2024/02/26 04:41:02;;;;;;;0.40;0.40;;;;;;;3.01;100.00;91086.69;2107155;28;20016;-83
2024/02/26 04:42:03;;;;;;;0.65;0.50;;;;;;;2.82;100.00;91080.41;2106697;27;20572;-84
2024/02/26 04:43:04;;;;;;;0.40;0.40;;;;;;;2.86;100.00;91086.34;2114882;28;20414;-84
2024/02/26 04:44:05;;;;;;;0.50;0.50;;;;;;;2.78;100.00;91083.13;2106588;28;20020;-82
2024/02/26 04:45:08;;;;;;;0.40;0.40;;;;;;;2.72;100.00;91091.94;2123316;27;20033;-81
2024/02/26 04:46:09;;;;;;;0.55;0.50;;;;;;;2.74;100.00;91093.03;2123257;27;20023;-82
2024/02/26 04:47:26;;;;;;;0.50;0.43;;;;;;;2.71;100.00;91095.75;2106334;28;20059;-84
2024/02/26 04:48:27;;;;;;;0.40;0.40;;;;;;;2.71;100.00;91101.75;2107894;28;20028;-84
2024/02/26 04:49:28;;;;;;;0.38;0.38;;;;;;;2.75;100.00;91099.78;2105771;28;20533;-80
2024/02/26 04:50:29;;;;;;;0.40;0.40;;;;;;;2.71;100.00;91093.13;2112925;28;20023;-82